Paz No Mundo — CURL9 — position and weather

sailwx.info

Track history (hours):
 
Tides and Currents Weather Stations Pressure Air Temp Water Temp Dewpoint Dewpoint Depression Visibility Wind Speed Wind Dir Waves Ship Positions

Paz No Mundo

Last reported at 2017-Sep-08 07:13 UTC. Time now 2017-Sep-23 23:59 UTC.
Position N 39°36' W 009°19'.
Warning: this ship's position is 15 days out of date.

MMSI: 263401740.

Date/timePositionNaut miles runAvg speedWind from/ knotsBaromVisibWave heightAir tempDewpointWater temp
2017-Sep-08 07:13N 39°36' W 009°19'0 0.8
2017-Sep-08 07:00N 39°36' W 009°19'0 0.9
2017-Sep-08 06:30N 39°37' W 009°19'2 0.7
2017-Sep-08 03:58N 39°38' W 009°20'1 1.8
2017-Sep-08 03:08N 39°37' W 009°21'2 5.6
2017-Sep-08 02:51N 39°37' W 009°18'3 6.7
2017-Sep-08 02:27N 39°37' W 009°15'3 0.3
2017-Sep-07 15:52N 39°36' W 009°11'3 6.6
2017-Sep-07 15:22N 39°37' W 009°15'2 6.7
2017-Sep-07 15:00N 39°37' W 009°18'1 2.6
2017-Sep-07 14:30N 39°37' W 009°20'1 1.2
2017-Sep-07 14:00N 39°37' W 009°21'1 1.1
2017-Sep-07 13:30N 39°37' W 009°22'1 1.1
2017-Sep-07 13:00N 39°37' W 009°22'1 1.0
2017-Sep-07 12:31N 39°37' W 009°23'0 1.0
2017-Sep-07 12:00N 39°38' W 009°23'0 0.7
2017-Sep-07 11:30N 39°38' W 009°23'0 1.0
2017-Sep-07 11:00N 39°38' W 009°23'0 0.5
2017-Sep-07 10:30N 39°38' W 009°22'1 1.7
2017-Sep-07 10:01N 39°38' W 009°21'1 1.2
2017-Sep-07 09:29N 39°38' W 009°21'1 1.2
2017-Sep-07 09:00N 39°38' W 009°20'1 1.0
2017-Sep-07 08:30N 39°38' W 009°19'1 1.2
2017-Sep-07 08:00N 39°38' W 009°18'1 0.8
2017-Sep-07 07:17N 39°39' W 009°18'  
Track history (hours):
 
Tides and Currents Weather Stations Pressure Air Temp Water Temp Dewpoint Dewpoint Depression Visibility Wind Speed Wind Dir Waves Ship Positions

Paz No Mundo

Last reported at 2017-Sep-08 07:13 UTC. Time now 2017-Sep-23 23:59 UTC.
Position N 39°36' W 009°19'.
Warning: this ship's position is 15 days out of date.

MMSI: 263401740.

Date/timePositionNaut miles runAvg speedWind from/ knotsBaromVisibWave heightAir tempDewpointWater temp
2017-Sep-08 07:13N 39°36' W 009°19'0 0.8
2017-Sep-08 07:00N 39°36' W 009°19'0 0.9
2017-Sep-08 06:30N 39°37' W 009°19'2 0.7
2017-Sep-08 03:58N 39°38' W 009°20'1 1.8
2017-Sep-08 03:08N 39°37' W 009°21'2 5.6
2017-Sep-08 02:51N 39°37' W 009°18'3 6.7
2017-Sep-08 02:27N 39°37' W 009°15'3 0.3
2017-Sep-07 15:52N 39°36' W 009°11'3 6.6
2017-Sep-07 15:22N 39°37' W 009°15'2 6.7
2017-Sep-07 15:00N 39°37' W 009°18'1 2.6
2017-Sep-07 14:30N 39°37' W 009°20'1 1.2
2017-Sep-07 14:00N 39°37' W 009°21'1 1.1
2017-Sep-07 13:30N 39°37' W 009°22'1 1.1
2017-Sep-07 13:00N 39°37' W 009°22'1 1.0
2017-Sep-07 12:31N 39°37' W 009°23'0 1.0
2017-Sep-07 12:00N 39°38' W 009°23'0 0.7
2017-Sep-07 11:30N 39°38' W 009°23'0 1.0
2017-Sep-07 11:00N 39°38' W 009°23'0 0.5
2017-Sep-07 10:30N 39°38' W 009°22'1 1.7
2017-Sep-07 10:01N 39°38' W 009°21'1 1.2
2017-Sep-07 09:29N 39°38' W 009°21'1 1.2
2017-Sep-07 09:00N 39°38' W 009°20'1 1.0
2017-Sep-07 08:30N 39°38' W 009°19'1 1.2
2017-Sep-07 08:00N 39°38' W 009°18'1 0.8
2017-Sep-07 07:17N 39°39' W 009°18'  

Dump ship's entire track history